ESGR/KVB METAR and TAF weather

Enter ICAO airport designator
Station Type Date Time Source
ESGR METAR 2018/06/25 01:50 UTC NOAA

ESGR 250150Z AUTO 18001KT 9999 NCD 06/03 Q1014


Station Type Date Time Source
ESGR Decoded METAR 2018/06/25 01:50 UTC NOAA

Skovde Flygplats, Sweden (ESGR) 58-27N 013-58E 105M
Jun 24, 2018 - 09:50 PM EDT / 2018.06.25 0150 UTC
Wind: from the S (180 degrees) at 1 MPH (1 KT):0
Visibility: greater than 7 mile(s):0
Temperature: 42 F (6 C)
Dew Point: 37 F (3 C)
Relative Humidity: 81%
Pressure (altimeter): 29.94 in. Hg (1014 hPa)
ob: ESGR 250150Z AUTO 18001KT 9999 NCD 06/03 Q1014
cycle: 2

Station Type Date Time Source
ESGR TAF 2009/06/28 04:50 UTC NOAA

METAR ESGR 280450Z AUTO VRB02KT 9999NDV NCD 17/12 Q1020


Example: see airport list